sensor_id;sensor_type;location;lat;lon;timestamp;P1;durP1;ratioP1;P2;durP2;ratioP2
60675;SDS011;46716;38.014;-7.874;2022-08-23T00:01:58;20.20;;;12.45;;
60675;SDS011;46716;38.014;-7.874;2022-08-23T00:04:03;17.75;;;11.93;;
60675;SDS011;46716;38.014;-7.874;2022-08-23T00:06:07;19.67;;;12.57;;
60675;SDS011;46716;38.014;-7.874;2022-08-23T00:08:09;14.77;;;12.23;;
60675;SDS011;46716;38.014;-7.874;2022-08-23T00:10:11;15.07;;;12.27;;
60675;SDS011;46716;38.014;-7.874;2022-08-23T00:12:18;15.85;;;12.35;;
60675;SDS011;46716;38.014;-7.874;2022-08-23T00:14:22;19.58;;;12.82;;
60675;SDS011;46716;38.014;-7.874;2022-08-23T00:16:26;22.40;;;12.30;;
60675;SDS011;46716;38.014;-7.874;2022-08-23T00:18:27;329.63;;;33.05;;
60675;SDS011;46716;38.014;-7.874;2022-08-23T00:20:28;56.17;;;15.20;;
60675;SDS011;46716;38.014;-7.874;2022-08-23T00:22:29;20.77;;;11.15;;
60675;SDS011;46716;38.014;-7.874;2022-08-23T00:24:30;20.48;;;11.23;;
60675;SDS011;46716;38.014;-7.874;2022-08-23T00:26:51;18.33;;;11.50;;
60675;SDS011;46716;38.014;-7.874;2022-08-23T00:28:58;18.60;;;12.50;;
60675;SDS011;46716;38.014;-7.874;2022-08-23T00:30:59;16.98;;;11.85;;
60675;SDS011;46716;38.014;-7.874;2022-08-23T00:33:00;14.13;;;11.05;;
60675;SDS011;46716;38.014;-7.874;2022-08-23T00:35:02;16.27;;;10.15;;
60675;SDS011;46716;38.014;-7.874;2022-08-23T00:37:04;22.50;;;10.43;;
60675;SDS011;46716;38.014;-7.874;2022-08-23T00:39:05;11.55;;;9.63;;
60675;SDS011;46716;38.014;-7.874;2022-08-23T00:41:07;12.95;;;8.43;;
60675;SDS011;46716;38.014;-7.874;2022-08-23T00:43:11;13.73;;;8.20;;
60675;SDS011;46716;38.014;-7.874;2022-08-23T00:45:47;14.10;;;8.00;;
60675;SDS011;46716;38.014;-7.874;2022-08-23T00:48:21;14.05;;;7.15;;
60675;SDS011;46716;38.014;-7.874;2022-08-23T00:50:31;8.77;;;5.80;;
60675;SDS011;46716;38.014;-7.874;2022-08-23T00:52:39;14.55;;;6.13;;
60675;SDS011;46716;38.014;-7.874;2022-08-23T00:54:46;12.90;;;5.75;;
60675;SDS011;46716;38.014;-7.874;2022-08-23T00:56:47;8.10;;;5.32;;
60675;SDS011;46716;38.014;-7.874;2022-08-23T00:58:49;10.45;;;5.15;;
60675;SDS011;46716;38.014;-7.874;2022-08-23T01:00:51;9.50;;;5.10;;
60675;SDS011;46716;38.014;-7.874;2022-08-23T01:02:54;11.77;;;4.90;;
60675;SDS011;46716;38.014;-7.874;2022-08-23T01:04:57;11.80;;;5.40;;
60675;SDS011;46716;38.014;-7.874;2022-08-23T01:07:03;12.48;;;5.13;;
60675;SDS011;46716;38.014;-7.874;2022-08-23T01:09:13;8.18;;;5.10;;
60675;SDS011;46716;38.014;-7.874;2022-08-23T01:13:44;8.73;;;4.85;;
60675;SDS011;46716;38.014;-7.874;2022-08-23T01:15:52;10.93;;;5.00;;
60675;SDS011;46716;38.014;-7.874;2022-08-23T01:18:00;6.50;;;4.32;;
60675;SDS011;46716;38.014;-7.874;2022-08-23T01:20:09;13.45;;;4.95;;
60675;SDS011;46716;38.014;-7.874;2022-08-23T01:26:38;10.63;;;4.57;;
60675;SDS011;46716;38.014;-7.874;2022-08-23T01:28:39;9.07;;;4.82;;
60675;SDS011;46716;38.014;-7.874;2022-08-23T01:30:40;9.30;;;5.20;;
60675;SDS011;46716;38.014;-7.874;2022-08-23T01:32:45;9.27;;;5.03;;
60675;SDS011;46716;38.014;-7.874;2022-08-23T01:34:52;12.93;;;5.60;;
60675;SDS011;46716;38.014;-7.874;2022-08-23T01:36:54;9.57;;;5.25;;
60675;SDS011;46716;38.014;-7.874;2022-08-23T01:38:56;13.55;;;4.97;;
60675;SDS011;46716;38.014;-7.874;2022-08-23T01:40:57;9.90;;;5.60;;
60675;SDS011;46716;38.014;-7.874;2022-08-23T01:43:00;9.43;;;5.97;;
60675;SDS011;46716;38.014;-7.874;2022-08-23T01:45:01;9.00;;;6.35;;
60675;SDS011;46716;38.014;-7.874;2022-08-23T01:47:04;11.73;;;8.13;;
60675;SDS011;46716;38.014;-7.874;2022-08-23T01:49:06;18.88;;;9.70;;
60675;SDS011;46716;38.014;-7.874;2022-08-23T01:51:07;21.88;;;10.25;;
60675;SDS011;46716;38.014;-7.874;2022-08-23T01:53:10;13.75;;;9.15;;
60675;SDS011;46716;38.014;-7.874;2022-08-23T01:55:13;14.88;;;9.50;;
60675;SDS011;46716;38.014;-7.874;2022-08-23T01:57:15;13.48;;;8.45;;
60675;SDS011;46716;38.014;-7.874;2022-08-23T01:59:16;13.20;;;8.77;;
60675;SDS011;46716;38.014;-7.874;2022-08-23T02:01:24;12.13;;;8.90;;
60675;SDS011;46716;38.014;-7.874;2022-08-23T02:03:25;13.77;;;8.82;;
60675;SDS011;46716;38.014;-7.874;2022-08-23T02:05:30;14.10;;;9.38;;
60675;SDS011;46716;38.014;-7.874;2022-08-23T02:07:31;16.23;;;9.88;;
60675;SDS011;46716;38.014;-7.874;2022-08-23T02:09:33;15.35;;;10.35;;
60675;SDS011;46716;38.014;-7.874;2022-08-23T02:11:38;17.00;;;9.88;;
60675;SDS011;46716;38.014;-7.874;2022-08-23T02:13:41;16.40;;;10.30;;
60675;SDS011;46716;38.014;-7.874;2022-08-23T02:15:45;17.20;;;10.40;;
60675;SDS011;46716;38.014;-7.874;2022-08-23T02:17:51;20.73;;;11.35;;
60675;SDS011;46716;38.014;-7.874;2022-08-23T02:19:54;15.80;;;10.52;;
60675;SDS011;46716;38.014;-7.874;2022-08-23T02:21:55;16.63;;;11.52;;
60675;SDS011;46716;38.014;-7.874;2022-08-23T02:24:02;15.48;;;12.02;;
60675;SDS011;46716;38.014;-7.874;2022-08-23T02:26:05;17.65;;;12.20;;
60675;SDS011;46716;38.014;-7.874;2022-08-23T02:28:06;14.20;;;11.93;;
60675;SDS011;46716;38.014;-7.874;2022-08-23T02:30:08;14.95;;;11.98;;
60675;SDS011;46716;38.014;-7.874;2022-08-23T02:32:10;15.35;;;11.38;;
60675;SDS011;46716;38.014;-7.874;2022-08-23T02:34:13;16.70;;;11.80;;
60675;SDS011;46716;38.014;-7.874;2022-08-23T02:36:16;17.15;;;12.43;;
60675;SDS011;46716;38.014;-7.874;2022-08-23T02:38:17;20.23;;;11.80;;
60675;SDS011;46716;38.014;-7.874;2022-08-23T02:40:18;17.13;;;12.77;;
60675;SDS011;46716;38.014;-7.874;2022-08-23T02:42:19;17.17;;;11.88;;
60675;SDS011;46716;38.014;-7.874;2022-08-23T02:44:20;16.33;;;12.85;;
60675;SDS011;46716;38.014;-7.874;2022-08-23T02:46:22;20.00;;;12.57;;
60675;SDS011;46716;38.014;-7.874;2022-08-23T02:48:25;16.48;;;12.00;;
60675;SDS011;46716;38.014;-7.874;2022-08-23T02:50:36;18.38;;;12.52;;
60675;SDS011;46716;38.014;-7.874;2022-08-23T02:52:37;17.05;;;12.32;;
60675;SDS011;46716;38.014;-7.874;2022-08-23T02:54:38;20.55;;;12.95;;
60675;SDS011;46716;38.014;-7.874;2022-08-23T02:56:39;20.92;;;12.38;;
60675;SDS011;46716;38.014;-7.874;2022-08-23T02:58:41;21.88;;;13.18;;
60675;SDS011;46716;38.014;-7.874;2022-08-23T03:00:47;17.92;;;12.13;;
60675;SDS011;46716;38.014;-7.874;2022-08-23T03:02:49;24.10;;;12.27;;
60675;SDS011;46716;38.014;-7.874;2022-08-23T03:04:50;25.98;;;11.50;;
60675;SDS011;46716;38.014;-7.874;2022-08-23T03:08:54;31.88;;;11.60;;
60675;SDS011;46716;38.014;-7.874;2022-08-23T03:10:56;14.98;;;10.25;;
60675;SDS011;46716;38.014;-7.874;2022-08-23T03:12:56;52.70;;;11.05;;
60675;SDS011;46716;38.014;-7.874;2022-08-23T03:14:58;28.45;;;9.77;;
60675;SDS011;46716;38.014;-7.874;2022-08-23T03:16:59;26.08;;;9.75;;
60675;SDS011;46716;38.014;-7.874;2022-08-23T03:19:00;105.38;;;13.80;;
60675;SDS011;46716;38.014;-7.874;2022-08-23T03:21:03;48.15;;;11.73;;
60675;SDS011;46716;38.014;-7.874;2022-08-23T03:23:07;60.70;;;11.75;;
60675;SDS011;46716;38.014;-7.874;2022-08-23T03:25:09;19.90;;;9.55;;
60675;SDS011;46716;38.014;-7.874;2022-08-23T03:27:26;29.08;;;10.73;;
60675;SDS011;46716;38.014;-7.874;2022-08-23T03:29:27;18.27;;;9.27;;
60675;SDS011;46716;38.014;-7.874;2022-08-23T03:31:36;18.50;;;10.85;;
60675;SDS011;46716;38.014;-7.874;2022-08-23T03:33:43;20.50;;;11.52;;
60675;SDS011;46716;38.014;-7.874;2022-08-23T03:35:44;111.13;;;18.55;;
60675;SDS011;46716;38.014;-7.874;2022-08-23T03:37:46;36.17;;;11.98;;
60675;SDS011;46716;38.014;-7.874;2022-08-23T03:39:49;69.85;;;13.95;;
60675;SDS011;46716;38.014;-7.874;2022-08-23T03:41:52;49.65;;;11.55;;
60675;SDS011;46716;38.014;-7.874;2022-08-23T03:43:53;18.77;;;11.45;;
60675;SDS011;46716;38.014;-7.874;2022-08-23T03:45:54;14.88;;;11.77;;
60675;SDS011;46716;38.014;-7.874;2022-08-23T03:47:58;17.13;;;11.35;;
60675;SDS011;46716;38.014;-7.874;2022-08-23T03:50:00;18.20;;;12.25;;
60675;SDS011;46716;38.014;-7.874;2022-08-23T03:52:02;19.48;;;11.68;;
60675;SDS011;46716;38.014;-7.874;2022-08-23T03:54:06;20.73;;;12.02;;
60675;SDS011;46716;38.014;-7.874;2022-08-23T03:56:08;29.95;;;10.90;;
60675;SDS011;46716;38.014;-7.874;2022-08-23T03:58:09;20.58;;;9.95;;
60675;SDS011;46716;38.014;-7.874;2022-08-23T04:00:12;14.70;;;10.35;;
60675;SDS011;46716;38.014;-7.874;2022-08-23T04:02:19;17.63;;;11.60;;
60675;SDS011;46716;38.014;-7.874;2022-08-23T04:04:20;24.50;;;11.02;;
60675;SDS011;46716;38.014;-7.874;2022-08-23T04:06:48;19.05;;;10.32;;
60675;SDS011;46716;38.014;-7.874;2022-08-23T04:08:50;16.38;;;10.32;;
60675;SDS011;46716;38.014;-7.874;2022-08-23T04:10:52;94.00;;;13.15;;
60675;SDS011;46716;38.014;-7.874;2022-08-23T04:12:53;21.02;;;8.63;;
60675;SDS011;46716;38.014;-7.874;2022-08-23T04:14:55;18.75;;;8.98;;
60675;SDS011;46716;38.014;-7.874;2022-08-23T04:16:57;17.35;;;9.32;;
60675;SDS011;46716;38.014;-7.874;2022-08-23T04:18:58;15.20;;;8.85;;
60675;SDS011;46716;38.014;-7.874;2022-08-23T04:21:03;12.85;;;8.65;;
60675;SDS011;46716;38.014;-7.874;2022-08-23T04:23:11;11.85;;;8.35;;
60675;SDS011;46716;38.014;-7.874;2022-08-23T04:25:23;15.98;;;9.30;;
60675;SDS011;46716;38.014;-7.874;2022-08-23T04:27:24;19.90;;;9.45;;
60675;SDS011;46716;38.014;-7.874;2022-08-23T04:29:25;12.43;;;8.25;;
60675;SDS011;46716;38.014;-7.874;2022-08-23T04:31:27;13.02;;;8.95;;
60675;SDS011;46716;38.014;-7.874;2022-08-23T04:33:29;14.73;;;8.20;;
60675;SDS011;46716;38.014;-7.874;2022-08-23T04:35:33;16.40;;;7.55;;
60675;SDS011;46716;38.014;-7.874;2022-08-23T04:37:34;13.88;;;7.43;;
60675;SDS011;46716;38.014;-7.874;2022-08-23T04:39:36;12.32;;;7.07;;
60675;SDS011;46716;38.014;-7.874;2022-08-23T04:41:56;11.80;;;6.75;;
60675;SDS011;46716;38.014;-7.874;2022-08-23T04:44:16;11.55;;;6.63;;
60675;SDS011;46716;38.014;-7.874;2022-08-23T04:46:20;11.93;;;6.65;;
60675;SDS011;46716;38.014;-7.874;2022-08-23T04:48:22;9.02;;;6.60;;
60675;SDS011;46716;38.014;-7.874;2022-08-23T04:50:24;14.13;;;7.20;;
60675;SDS011;46716;38.014;-7.874;2022-08-23T04:52:43;8.60;;;5.68;;
60675;SDS011;46716;38.014;-7.874;2022-08-23T04:54:44;7.22;;;5.00;;
60675;SDS011;46716;38.014;-7.874;2022-08-23T04:57:24;9.00;;;4.82;;
60675;SDS011;46716;38.014;-7.874;2022-08-23T04:59:25;9.05;;;4.57;;
60675;SDS011;46716;38.014;-7.874;2022-08-23T05:01:26;9.10;;;4.57;;
60675;SDS011;46716;38.014;-7.874;2022-08-23T05:03:28;10.05;;;5.25;;
60675;SDS011;46716;38.014;-7.874;2022-08-23T05:05:32;11.13;;;4.63;;
60675;SDS011;46716;38.014;-7.874;2022-08-23T05:07:36;8.07;;;4.13;;
60675;SDS011;46716;38.014;-7.874;2022-08-23T05:09:38;8.10;;;3.75;;
60675;SDS011;46716;38.014;-7.874;2022-08-23T05:11:40;9.88;;;4.40;;
60675;SDS011;46716;38.014;-7.874;2022-08-23T05:13:41;9.20;;;4.65;;
60675;SDS011;46716;38.014;-7.874;2022-08-23T05:15:44;8.15;;;4.10;;
60675;SDS011;46716;38.014;-7.874;2022-08-23T05:17:45;9.87;;;4.40;;
60675;SDS011;46716;38.014;-7.874;2022-08-23T05:19:46;8.10;;;4.28;;
60675;SDS011;46716;38.014;-7.874;2022-08-23T05:21:48;6.55;;;4.22;;
60675;SDS011;46716;38.014;-7.874;2022-08-23T05:23:50;12.18;;;4.65;;
60675;SDS011;46716;38.014;-7.874;2022-08-23T05:25:54;8.82;;;4.45;;
60675;SDS011;46716;38.014;-7.874;2022-08-23T05:27:59;10.95;;;5.28;;
60675;SDS011;46716;38.014;-7.874;2022-08-23T05:30:02;10.38;;;4.60;;
60675;SDS011;46716;38.014;-7.874;2022-08-23T05:32:04;8.48;;;4.47;;
60675;SDS011;46716;38.014;-7.874;2022-08-23T05:34:05;9.57;;;4.70;;
60675;SDS011;46716;38.014;-7.874;2022-08-23T05:36:14;7.78;;;4.45;;
60675;SDS011;46716;38.014;-7.874;2022-08-23T05:38:16;12.38;;;4.47;;
60675;SDS011;46716;38.014;-7.874;2022-08-23T05:40:18;8.90;;;3.75;;
60675;SDS011;46716;38.014;-7.874;2022-08-23T05:42:32;7.72;;;4.25;;
60675;SDS011;46716;38.014;-7.874;2022-08-23T05:44:33;12.40;;;4.03;;
60675;SDS011;46716;38.014;-7.874;2022-08-23T05:46:35;10.02;;;4.43;;
60675;SDS011;46716;38.014;-7.874;2022-08-23T05:49:09;8.30;;;3.80;;
60675;SDS011;46716;38.014;-7.874;2022-08-23T05:51:11;7.90;;;3.50;;
60675;SDS011;46716;38.014;-7.874;2022-08-23T05:53:15;6.20;;;3.95;;
60675;SDS011;46716;38.014;-7.874;2022-08-23T05:55:18;7.55;;;3.88;;
60675;SDS011;46716;38.014;-7.874;2022-08-23T05:57:45;10.27;;;3.58;;
60675;SDS011;46716;38.014;-7.874;2022-08-23T05:59:46;8.02;;;3.70;;
60675;SDS011;46716;38.014;-7.874;2022-08-23T06:01:47;8.77;;;4.18;;
60675;SDS011;46716;38.014;-7.874;2022-08-23T06:03:51;10.98;;;4.00;;
60675;SDS011;46716;38.014;-7.874;2022-08-23T06:05:56;7.75;;;3.92;;
60675;SDS011;46716;38.014;-7.874;2022-08-23T06:07:58;7.60;;;3.83;;
60675;SDS011;46716;38.014;-7.874;2022-08-23T06:09:59;12.37;;;3.93;;
60675;SDS011;46716;38.014;-7.874;2022-08-23T06:12:01;6.93;;;3.67;;
60675;SDS011;46716;38.014;-7.874;2022-08-23T06:14:03;8.75;;;4.30;;
60675;SDS011;46716;38.014;-7.874;2022-08-23T06:16:06;12.98;;;4.88;;
60675;SDS011;46716;38.014;-7.874;2022-08-23T06:18:07;9.00;;;5.20;;
60675;SDS011;46716;38.014;-7.874;2022-08-23T06:20:09;11.68;;;5.97;;
60675;SDS011;46716;38.014;-7.874;2022-08-23T06:22:28;12.73;;;6.32;;
60675;SDS011;46716;38.014;-7.874;2022-08-23T06:24:29;10.57;;;6.32;;
60675;SDS011;46716;38.014;-7.874;2022-08-23T06:26:42;11.98;;;6.57;;
60675;SDS011;46716;38.014;-7.874;2022-08-23T06:28:45;9.30;;;6.40;;
60675;SDS011;46716;38.014;-7.874;2022-08-23T06:30:48;13.75;;;6.47;;
60675;SDS011;46716;38.014;-7.874;2022-08-23T06:33:11;10.57;;;6.40;;
60675;SDS011;46716;38.014;-7.874;2022-08-23T06:35:19;10.07;;;6.15;;
60675;SDS011;46716;38.014;-7.874;2022-08-23T06:37:27;11.50;;;6.13;;
60675;SDS011;46716;38.014;-7.874;2022-08-23T06:39:55;11.93;;;5.20;;
60675;SDS011;46716;38.014;-7.874;2022-08-23T06:42:19;13.68;;;5.20;;
60675;SDS011;46716;38.014;-7.874;2022-08-23T06:44:20;12.00;;;5.78;;
60675;SDS011;46716;38.014;-7.874;2022-08-23T06:46:33;12.77;;;3.95;;
60675;SDS011;46716;38.014;-7.874;2022-08-23T06:48:34;8.88;;;3.58;;
60675;SDS011;46716;38.014;-7.874;2022-08-23T06:50:35;8.00;;;4.22;;
60675;SDS011;46716;38.014;-7.874;2022-08-23T06:52:54;12.20;;;4.45;;
60675;SDS011;46716;38.014;-7.874;2022-08-23T06:55:25;12.80;;;4.40;;
60675;SDS011;46716;38.014;-7.874;2022-08-23T06:57:48;11.18;;;4.15;;
60675;SDS011;46716;38.014;-7.874;2022-08-23T07:00:12;17.95;;;5.15;;
60675;SDS011;46716;38.014;-7.874;2022-08-23T07:02:29;9.32;;;4.80;;
60675;SDS011;46716;38.014;-7.874;2022-08-23T07:04:31;13.63;;;4.88;;
60675;SDS011;46716;38.014;-7.874;2022-08-23T07:06:54;14.85;;;5.30;;
60675;SDS011;46716;38.014;-7.874;2022-08-23T07:08:56;9.82;;;4.22;;
60675;SDS011;46716;38.014;-7.874;2022-08-23T07:11:01;10.15;;;4.25;;
60675;SDS011;46716;38.014;-7.874;2022-08-23T07:13:02;8.15;;;4.38;;
60675;SDS011;46716;38.014;-7.874;2022-08-23T07:15:03;14.30;;;4.65;;
60675;SDS011;46716;38.014;-7.874;2022-08-23T07:17:04;9.48;;;4.15;;
60675;SDS011;46716;38.014;-7.874;2022-08-23T07:19:06;10.50;;;4.65;;
60675;SDS011;46716;38.014;-7.874;2022-08-23T07:21:09;13.73;;;5.40;;
60675;SDS011;46716;38.014;-7.874;2022-08-23T07:23:11;14.25;;;5.43;;
60675;SDS011;46716;38.014;-7.874;2022-08-23T07:25:13;13.53;;;4.73;;
60675;SDS011;46716;38.014;-7.874;2022-08-23T07:27:16;14.23;;;4.57;;
60675;SDS011;46716;38.014;-7.874;2022-08-23T07:29:25;11.55;;;5.15;;
60675;SDS011;46716;38.014;-7.874;2022-08-23T07:31:28;13.38;;;4.88;;
60675;SDS011;46716;38.014;-7.874;2022-08-23T07:33:31;14.05;;;4.95;;
60675;SDS011;46716;38.014;-7.874;2022-08-23T07:35:46;8.60;;;4.68;;
60675;SDS011;46716;38.014;-7.874;2022-08-23T07:37:48;8.18;;;4.43;;
60675;SDS011;46716;38.014;-7.874;2022-08-23T07:39:49;11.63;;;4.43;;
60675;SDS011;46716;38.014;-7.874;2022-08-23T07:41:50;11.40;;;4.85;;
60675;SDS011;46716;38.014;-7.874;2022-08-23T07:43:55;14.63;;;4.97;;
60675;SDS011;46716;38.014;-7.874;2022-08-23T07:45:58;9.10;;;4.07;;
60675;SDS011;46716;38.014;-7.874;2022-08-23T07:48:00;10.95;;;4.53;;
60675;SDS011;46716;38.014;-7.874;2022-08-23T07:50:05;7.70;;;4.22;;
60675;SDS011;46716;38.014;-7.874;2022-08-23T07:54:09;10.02;;;4.65;;
60675;SDS011;46716;38.014;-7.874;2022-08-23T07:56:33;10.05;;;4.68;;
60675;SDS011;46716;38.014;-7.874;2022-08-23T07:59:07;12.73;;;4.95;;
60675;SDS011;46716;38.014;-7.874;2022-08-23T08:01:24;14.23;;;4.70;;
60675;SDS011;46716;38.014;-7.874;2022-08-23T08:03:27;12.30;;;4.60;;
60675;SDS011;46716;38.014;-7.874;2022-08-23T08:05:40;10.13;;;4.93;;
60675;SDS011;46716;38.014;-7.874;2022-08-23T08:07:41;7.40;;;4.07;;
60675;SDS011;46716;38.014;-7.874;2022-08-23T08:09:42;16.97;;;5.20;;
60675;SDS011;46716;38.014;-7.874;2022-08-23T08:11:45;8.85;;;4.32;;
60675;SDS011;46716;38.014;-7.874;2022-08-23T08:13:49;14.82;;;5.07;;
60675;SDS011;46716;38.014;-7.874;2022-08-23T08:15:53;9.50;;;4.88;;
60675;SDS011;46716;38.014;-7.874;2022-08-23T08:17:57;10.15;;;4.72;;
60675;SDS011;46716;38.014;-7.874;2022-08-23T08:20:18;9.45;;;4.25;;
60675;SDS011;46716;38.014;-7.874;2022-08-23T08:22:33;11.90;;;4.22;;
60675;SDS011;46716;38.014;-7.874;2022-08-23T08:24:43;9.90;;;3.80;;
60675;SDS011;46716;38.014;-7.874;2022-08-23T08:26:46;13.65;;;4.25;;
60675;SDS011;46716;38.014;-7.874;2022-08-23T08:28:47;9.40;;;4.00;;
60675;SDS011;46716;38.014;-7.874;2022-08-23T08:30:49;8.07;;;3.75;;
60675;SDS011;46716;38.014;-7.874;2022-08-23T08:32:50;9.52;;;3.28;;
60675;SDS011;46716;38.014;-7.874;2022-08-23T08:34:51;5.47;;;3.00;;
60675;SDS011;46716;38.014;-7.874;2022-08-23T08:36:53;6.68;;;3.55;;
60675;SDS011;46716;38.014;-7.874;2022-08-23T08:38:58;7.63;;;3.20;;
60675;SDS011;46716;38.014;-7.874;2022-08-23T08:41:18;9.20;;;3.88;;
60675;SDS011;46716;38.014;-7.874;2022-08-23T08:43:51;6.40;;;3.38;;
60675;SDS011;46716;38.014;-7.874;2022-08-23T08:46:12;8.52;;;3.55;;
60675;SDS011;46716;38.014;-7.874;2022-08-23T08:48:43;8.95;;;3.55;;
60675;SDS011;46716;38.014;-7.874;2022-08-23T08:50:56;7.38;;;4.20;;
60675;SDS011;46716;38.014;-7.874;2022-08-23T08:55:31;9.27;;;4.85;;
60675;SDS011;46716;38.014;-7.874;2022-08-23T08:57:41;9.10;;;5.03;;
60675;SDS011;46716;38.014;-7.874;2022-08-23T09:00:27;23.35;;;6.20;;
60675;SDS011;46716;38.014;-7.874;2022-08-23T09:02:18;14.57;;;5.30;;
60675;SDS011;46716;38.014;-7.874;2022-08-23T09:04:23;9.00;;;5.50;;
60675;SDS011;46716;38.014;-7.874;2022-08-23T09:13:02;9.00;;;4.85;;
60675;SDS011;46716;38.014;-7.874;2022-08-23T09:15:37;9.55;;;4.38;;
60675;SDS011;46716;38.014;-7.874;2022-08-23T09:18:06;13.98;;;5.82;;
60675;SDS011;46716;38.014;-7.874;2022-08-23T09:20:13;9.43;;;5.53;;
60675;SDS011;46716;38.014;-7.874;2022-08-23T09:22:27;13.07;;;4.03;;
60675;SDS011;46716;38.014;-7.874;2022-08-23T09:24:36;10.80;;;5.32;;
60675;SDS011;46716;38.014;-7.874;2022-08-23T09:26:48;10.70;;;4.72;;
60675;SDS011;46716;38.014;-7.874;2022-08-23T09:28:55;7.80;;;4.63;;
60675;SDS011;46716;38.014;-7.874;2022-08-23T09:31:00;26.30;;;5.90;;
60675;SDS011;46716;38.014;-7.874;2022-08-23T09:33:14;9.50;;;4.40;;
60675;SDS011;46716;38.014;-7.874;2022-08-23T09:35:24;9.65;;;4.65;;
60675;SDS011;46716;38.014;-7.874;2022-08-23T09:37:53;10.85;;;3.92;;
60675;SDS011;46716;38.014;-7.874;2022-08-23T09:40:18;9.00;;;4.60;;
60675;SDS011;46716;38.014;-7.874;2022-08-23T09:42:43;8.85;;;4.20;;
60675;SDS011;46716;38.014;-7.874;2022-08-23T09:44:50;7.30;;;4.13;;
60675;SDS011;46716;38.014;-7.874;2022-08-23T09:46:59;8.70;;;4.32;;
60675;SDS011;46716;38.014;-7.874;2022-08-23T09:49:21;12.80;;;4.28;;
60675;SDS011;46716;38.014;-7.874;2022-08-23T09:53:40;11.90;;;4.45;;
60675;SDS011;46716;38.014;-7.874;2022-08-23T09:56:13;9.35;;;4.68;;
60675;SDS011;46716;38.014;-7.874;2022-08-23T10:01:17;6.70;;;3.65;;
60675;SDS011;46716;38.014;-7.874;2022-08-23T10:03:27;6.35;;;3.72;;
60675;SDS011;46716;38.014;-7.874;2022-08-23T10:05:52;9.27;;;4.03;;
60675;SDS011;46716;38.014;-7.874;2022-08-23T10:08:22;7.82;;;4.57;;
60675;SDS011;46716;38.014;-7.874;2022-08-23T10:10:37;9.93;;;4.82;;
60675;SDS011;46716;38.014;-7.874;2022-08-23T10:13:06;11.60;;;4.07;;
60675;SDS011;46716;38.014;-7.874;2022-08-23T10:15:10;11.90;;;4.63;;
60675;SDS011;46716;38.014;-7.874;2022-08-23T10:17:30;8.98;;;4.30;;
60675;SDS011;46716;38.014;-7.874;2022-08-23T10:19:50;9.40;;;4.28;;
60675;SDS011;46716;38.014;-7.874;2022-08-23T10:24:21;12.70;;;4.30;;
60675;SDS011;46716;38.014;-7.874;2022-08-23T10:26:32;9.45;;;3.63;;
60675;SDS011;46716;38.014;-7.874;2022-08-23T10:28:47;7.60;;;4.20;;
60675;SDS011;46716;38.014;-7.874;2022-08-23T10:31:27;9.63;;;3.80;;
60675;SDS011;46716;38.014;-7.874;2022-08-23T10:33:39;8.82;;;3.55;;
60675;SDS011;46716;38.014;-7.874;2022-08-23T10:35:59;8.05;;;3.70;;
60675;SDS011;46716;38.014;-7.874;2022-08-23T10:38:17;10.38;;;3.85;;
60675;SDS011;46716;38.014;-7.874;2022-08-23T10:43:13;15.30;;;3.95;;
60675;SDS011;46716;38.014;-7.874;2022-08-23T10:45:16;7.03;;;2.95;;
60675;SDS011;46716;38.014;-7.874;2022-08-23T10:48:13;8.52;;;3.78;;
60675;SDS011;46716;38.014;-7.874;2022-08-23T10:50:04;10.50;;;3.70;;
60675;SDS011;46716;38.014;-7.874;2022-08-23T10:52:11;10.15;;;4.97;;
60675;SDS011;46716;38.014;-7.874;2022-08-23T10:54:17;9.65;;;4.10;;
60675;SDS011;46716;38.014;-7.874;2022-08-23T10:56:34;7.97;;;4.22;;
60675;SDS011;46716;38.014;-7.874;2022-08-23T11:00:42;10.75;;;4.43;;
60675;SDS011;46716;38.014;-7.874;2022-08-23T11:07:24;7.22;;;4.18;;
60675;SDS011;46716;38.014;-7.874;2022-08-23T11:09:34;12.57;;;4.20;;
60675;SDS011;46716;38.014;-7.874;2022-08-23T11:12:02;11.02;;;4.45;;
60675;SDS011;46716;38.014;-7.874;2022-08-23T11:16:29;11.45;;;4.93;;
60675;SDS011;46716;38.014;-7.874;2022-08-23T11:18:39;14.10;;;5.53;;
60675;SDS011;46716;38.014;-7.874;2022-08-23T11:25:03;13.80;;;4.63;;
60675;SDS011;46716;38.014;-7.874;2022-08-23T11:27:32;9.98;;;4.55;;
60675;SDS011;46716;38.014;-7.874;2022-08-23T11:29:33;10.73;;;4.25;;
60675;SDS011;46716;38.014;-7.874;2022-08-23T11:32:03;10.15;;;4.53;;
60675;SDS011;46716;38.014;-7.874;2022-08-23T11:36:31;9.52;;;4.25;;
60675;SDS011;46716;38.014;-7.874;2022-08-23T11:40:55;11.50;;;3.33;;
60675;SDS011;46716;38.014;-7.874;2022-08-23T11:43:05;8.93;;;4.28;;
60675;SDS011;46716;38.014;-7.874;2022-08-23T11:45:21;11.45;;;4.20;;
60675;SDS011;46716;38.014;-7.874;2022-08-23T11:47:40;8.90;;;3.72;;
60675;SDS011;46716;38.014;-7.874;2022-08-23T12:01:51;9.48;;;4.20;;
60675;SDS011;46716;38.014;-7.874;2022-08-23T12:04:52;7.50;;;3.63;;
60675;SDS011;46716;38.014;-7.874;2022-08-23T12:06:40;8.10;;;3.83;;
60675;SDS011;46716;38.014;-7.874;2022-08-23T12:08:57;11.15;;;3.30;;
60675;SDS011;46716;38.014;-7.874;2022-08-23T12:11:05;8.68;;;3.67;;
60675;SDS011;46716;38.014;-7.874;2022-08-23T12:15:22;7.32;;;3.33;;
60675;SDS011;46716;38.014;-7.874;2022-08-23T12:18:07;6.05;;;3.00;;
60675;SDS011;46716;38.014;-7.874;2022-08-23T12:20:13;9.15;;;3.28;;
60675;SDS011;46716;38.014;-7.874;2022-08-23T12:22:33;4.97;;;2.90;;
60675;SDS011;46716;38.014;-7.874;2022-08-23T12:25:01;5.95;;;3.15;;
60675;SDS011;46716;38.014;-7.874;2022-08-23T12:29:18;5.43;;;2.20;;
60675;SDS011;46716;38.014;-7.874;2022-08-23T12:31:56;5.40;;;2.40;;
60675;SDS011;46716;38.014;-7.874;2022-08-23T12:34:26;5.88;;;2.80;;
60675;SDS011;46716;38.014;-7.874;2022-08-23T12:36:42;6.50;;;2.67;;
60675;SDS011;46716;38.014;-7.874;2022-08-23T12:41:19;8.43;;;2.28;;
60675;SDS011;46716;38.014;-7.874;2022-08-23T12:43:29;6.97;;;2.25;;
60675;SDS011;46716;38.014;-7.874;2022-08-23T12:45:38;5.35;;;3.22;;
60675;SDS011;46716;38.014;-7.874;2022-08-23T12:47:42;5.65;;;2.63;;
60675;SDS011;46716;38.014;-7.874;2022-08-23T12:49:58;6.88;;;2.80;;
60675;SDS011;46716;38.014;-7.874;2022-08-23T12:52:07;6.40;;;2.95;;
60675;SDS011;46716;38.014;-7.874;2022-08-23T12:54:20;7.65;;;3.15;;
60675;SDS011;46716;38.014;-7.874;2022-08-23T12:56:25;7.47;;;2.80;;
60675;SDS011;46716;38.014;-7.874;2022-08-23T12:58:34;5.85;;;3.42;;
60675;SDS011;46716;38.014;-7.874;2022-08-23T13:05:09;7.82;;;2.80;;
60675;SDS011;46716;38.014;-7.874;2022-08-23T13:07:24;9.38;;;2.92;;
60675;SDS011;46716;38.014;-7.874;2022-08-23T13:09:30;5.65;;;2.75;;
60675;SDS011;46716;38.014;-7.874;2022-08-23T13:11:40;5.90;;;2.80;;
60675;SDS011;46716;38.014;-7.874;2022-08-23T13:13:43;6.78;;;3.30;;
60675;SDS011;46716;38.014;-7.874;2022-08-23T13:18:02;8.57;;;2.90;;
60675;SDS011;46716;38.014;-7.874;2022-08-23T13:22:21;11.77;;;3.07;;
60675;SDS011;46716;38.014;-7.874;2022-08-23T13:24:25;7.78;;;2.58;;
60675;SDS011;46716;38.014;-7.874;2022-08-23T13:26:42;6.68;;;2.70;;
60675;SDS011;46716;38.014;-7.874;2022-08-23T13:28:58;5.03;;;2.55;;
60675;SDS011;46716;38.014;-7.874;2022-08-23T13:31:19;6.50;;;2.35;;
60675;SDS011;46716;38.014;-7.874;2022-08-23T13:33:20;7.03;;;2.50;;
60675;SDS011;46716;38.014;-7.874;2022-08-23T13:35:33;5.90;;;2.63;;
60675;SDS011;46716;38.014;-7.874;2022-08-23T13:37:38;10.88;;;2.50;;
60675;SDS011;46716;38.014;-7.874;2022-08-23T13:39:50;193.30;;;14.82;;
60675;SDS011;46716;38.014;-7.874;2022-08-23T13:41:55;6.72;;;2.13;;
60675;SDS011;46716;38.014;-7.874;2022-08-23T13:43:56;10.30;;;3.10;;
60675;SDS011;46716;38.014;-7.874;2022-08-23T13:45:59;6.38;;;2.70;;
60675;SDS011;46716;38.014;-7.874;2022-08-23T13:48:23;8.65;;;3.22;;